메인 페이지
METAR-TAF:

METAR-TAF

공항 :

Army Air Corps Middle Wallop

Middle Wallop, 잉글랜드

위도: 51-09N, 경도: 001-34W, 고도: 91m

현재 날씨관측

예보는 50분 전, 12:20시(UTC)에 발표되었습니다.
남남서9kt
온도 17°C
습도 100%
기압 1010 hPa
시정: 7000m
고도 800ft 상공 구름 보통
고도 3900ft 상공 흐림
소나기

METAR: EGVP 251220Z 20009KT 8000 7000SE SHRA SCT008 OVC039 17/17 Q1010 TEMPO 4000 SHRA RMK GRN TEMPO GRN

시각: 14:10 (13:10 UTC)

예보

예보는 2 시간 17분 전, 10:53시(UTC)에 발표되었습니다.
예보 대상 시간: 25일 12시부터 25일 21시까지 (UTC)
남남서8kt
시정 10km 이상
고도 500ft 상공 구름 많음
전환 중
25일 12시부터 25일 14시까지 (UTC)
고도 800ft 상공 구름 많음
일시적
25일 12시부터 25일 14시까지 (UTC)
시정: 4000m
소나기
확률 40% :
일시적
25일 12시부터 25일 16시까지 (UTC)
고도 800ft 상공 구름 조금
확률 40% :
일시적
25일 16시부터 25일 19시까지 (UTC)
시정: 4000m
고도 500ft 상공 구름 많음
소나기
확률 40% :
일시적
25일 19시부터 25일 21시까지 (UTC)
시정: 5000m
고도 500ft 상공 구름 많음
약한이슬비,

TAF: EGVP 251053Z 2512/2521 21008KT 9999 BKN005 BECMG 2512/2514 BKN008 TEMPO 2512/2514 4000 SHRA PROB40 TEMPO 2512/2516 FEW008 PROB40 TEMPO 2516/2519 4000 SHRA BKN005 PROB40 TEMPO 2519/2521 5000 -DZ BKN005

4,000개 이상의 공항 관측 자료 및 예보 (METAR 및 TAF 보고).

지도상에서 검색 가능한 기상관측소가 노란 점과 빨간 점으로 표시되어 있습니다.

기상관측소 명을 보려면 표시 위로 마우스를 이동하세요.

날씨 관측과 예보를 보려면 클릭하세요.

지도 변경 : 확대하려면 엑스 표시가 있는 녹색 버튼, 축소하려면 빼기 표시가 있는 녹색 버튼, 다음 페이지의 지도를 보려면 녹색 화살표를 클릭하세요.


METAR-TAF: